sensor_id;sensor_type;location;lat;lon;timestamp;temperature;humidity
56123;DHT22;42426;46.104;19.656;2022-09-03T00:01:47;410.10;2355.20
56123;DHT22;42426;46.104;19.656;2022-09-03T00:05:12;410.10;2355.20
56123;DHT22;42426;46.104;19.656;2022-09-03T00:07:17;410.10;2355.20
56123;DHT22;42426;46.104;19.656;2022-09-03T00:09:50;410.10;2355.20
56123;DHT22;42426;46.104;19.656;2022-09-03T00:12:24;410.10;2355.20
56123;DHT22;42426;46.104;19.656;2022-09-03T00:14:59;410.00;2355.20
56123;DHT22;42426;46.104;19.656;2022-09-03T00:17:40;410.00;2355.20
56123;DHT22;42426;46.104;19.656;2022-09-03T00:22:42;410.00;2355.20
56123;DHT22;42426;46.104;19.656;2022-09-03T00:28:01;409.90;2355.20
56123;DHT22;42426;46.104;19.656;2022-09-03T00:30:29;409.90;2355.20
56123;DHT22;42426;46.104;19.656;2022-09-03T00:33:07;409.90;2355.20
56123;DHT22;42426;46.104;19.656;2022-09-03T00:38:04;409.80;2355.20
56123;DHT22;42426;46.104;19.656;2022-09-03T00:41:05;409.80;2355.20
56123;DHT22;42426;46.104;19.656;2022-09-03T00:43:50;409.80;2355.20
56123;DHT22;42426;46.104;19.656;2022-09-03T00:46:31;409.80;2355.20
56123;DHT22;42426;46.104;19.656;2022-09-03T00:49:27;409.70;2355.20
56123;DHT22;42426;46.104;19.656;2022-09-03T00:52:17;409.70;2355.20
56123;DHT22;42426;46.104;19.656;2022-09-03T01:00:04;409.60;2355.20
56123;DHT22;42426;46.104;19.656;2022-09-03T01:05:26;409.60;2355.20
56123;DHT22;42426;46.104;19.656;2022-09-03T01:08:19;409.60;2355.20
56123;DHT22;42426;46.104;19.656;2022-09-03T01:10:53;409.60;2355.20
56123;DHT22;42426;46.104;19.656;2022-09-03T01:13:33;409.60;2355.20
56123;DHT22;42426;46.104;19.656;2022-09-03T01:16:20;409.60;2355.20
56123;DHT22;42426;46.104;19.656;2022-09-03T01:19:03;384.90;2329.60
56123;DHT22;42426;46.104;19.656;2022-09-03T01:26:58;384.80;2329.60
56123;DHT22;42426;46.104;19.656;2022-09-03T01:32:22;384.80;2329.60
56123;DHT22;42426;46.104;19.656;2022-09-03T01:57:00;384.50;2329.60
56123;DHT22;42426;46.104;19.656;2022-09-03T01:59:32;384.60;2329.60
56123;DHT22;42426;46.104;19.656;2022-09-03T02:02:10;384.50;2329.60
56123;DHT22;42426;46.104;19.656;2022-09-03T02:07:36;384.50;2329.60
56123;DHT22;42426;46.104;19.656;2022-09-03T02:10:06;384.50;2329.60
56123;DHT22;42426;46.104;19.656;2022-09-03T02:12:34;384.40;2329.60
56123;DHT22;42426;46.104;19.656;2022-09-03T02:15:06;384.40;2329.60
56123;DHT22;42426;46.104;19.656;2022-09-03T02:17:33;384.40;2329.60
56123;DHT22;42426;46.104;19.656;2022-09-03T02:20:04;384.40;2329.60
56123;DHT22;42426;46.104;19.656;2022-09-03T02:22:31;384.40;2329.60
56123;DHT22;42426;46.104;19.656;2022-09-03T02:24:57;384.40;2329.60
56123;DHT22;42426;46.104;19.656;2022-09-03T02:27:23;384.40;2329.60
56123;DHT22;42426;46.104;19.656;2022-09-03T02:29:49;384.50;2329.60
56123;DHT22;42426;46.104;19.656;2022-09-03T02:32:18;384.50;2329.60
56123;DHT22;42426;46.104;19.656;2022-09-03T02:34:44;384.50;2329.60
56123;DHT22;42426;46.104;19.656;2022-09-03T02:37:16;384.50;2329.60
56123;DHT22;42426;46.104;19.656;2022-09-03T02:39:43;384.60;2329.60
56123;DHT22;42426;46.104;19.656;2022-09-03T02:42:13;384.60;2329.60
56123;DHT22;42426;46.104;19.656;2022-09-03T02:45:13;384.60;2329.60
56123;DHT22;42426;46.104;19.656;2022-09-03T02:47:43;384.60;2329.60
56123;DHT22;42426;46.104;19.656;2022-09-03T02:50:26;384.60;2329.60
56123;DHT22;42426;46.104;19.656;2022-09-03T02:52:52;384.50;2329.60
56123;DHT22;42426;46.104;19.656;2022-09-03T02:55:19;384.50;2329.60
56123;DHT22;42426;46.104;19.656;2022-09-03T02:57:45;384.50;2329.60
56123;DHT22;42426;46.104;19.656;2022-09-03T03:00:13;384.50;2329.60
56123;DHT22;42426;46.104;19.656;2022-09-03T03:02:39;384.50;2329.60
56123;DHT22;42426;46.104;19.656;2022-09-03T03:05:20;384.40;2329.60
56123;DHT22;42426;46.104;19.656;2022-09-03T03:07:49;384.40;2329.60
56123;DHT22;42426;46.104;19.656;2022-09-03T03:10:22;384.40;2329.60
56123;DHT22;42426;46.104;19.656;2022-09-03T03:12:47;384.40;2329.60
56123;DHT22;42426;46.104;19.656;2022-09-03T03:15:27;384.40;2329.60
56123;DHT22;42426;46.104;19.656;2022-09-03T03:17:55;384.40;2329.60
56123;DHT22;42426;46.104;19.656;2022-09-03T03:20:44;384.40;2329.60
56123;DHT22;42426;46.104;19.656;2022-09-03T03:23:10;384.40;2329.60
56123;DHT22;42426;46.104;19.656;2022-09-03T03:26:00;384.50;2329.60
56123;DHT22;42426;46.104;19.656;2022-09-03T03:28:26;384.50;2329.60
56123;DHT22;42426;46.104;19.656;2022-09-03T03:30:52;384.50;2329.60
56123;DHT22;42426;46.104;19.656;2022-09-03T03:33:18;384.50;2329.60
56123;DHT22;42426;46.104;19.656;2022-09-03T03:35:43;384.60;2329.60
56123;DHT22;42426;46.104;19.656;2022-09-03T03:38:09;384.60;2329.60
56123;DHT22;42426;46.104;19.656;2022-09-03T03:40:37;384.50;2329.60
56123;DHT22;42426;46.104;19.656;2022-09-03T03:43:03;384.60;2329.60
56123;DHT22;42426;46.104;19.656;2022-09-03T03:45:30;384.60;2329.60
56123;DHT22;42426;46.104;19.656;2022-09-03T03:47:57;384.60;2329.60
56123;DHT22;42426;46.104;19.656;2022-09-03T03:50:24;384.60;2329.60
56123;DHT22;42426;46.104;19.656;2022-09-03T03:52:50;384.60;2329.60
56123;DHT22;42426;46.104;19.656;2022-09-03T03:55:16;384.60;2329.60
56123;DHT22;42426;46.104;19.656;2022-09-03T03:57:41;384.70;2329.60
56123;DHT22;42426;46.104;19.656;2022-09-03T04:00:07;384.70;2329.60
56123;DHT22;42426;46.104;19.656;2022-09-03T04:02:33;384.70;2329.60
56123;DHT22;42426;46.104;19.656;2022-09-03T04:04:59;384.70;2329.60
56123;DHT22;42426;46.104;19.656;2022-09-03T04:07:25;384.80;2329.60
56123;DHT22;42426;46.104;19.656;2022-09-03T04:09:52;384.80;2329.60
56123;DHT22;42426;46.104;19.656;2022-09-03T04:12:17;384.80;2329.60
56123;DHT22;42426;46.104;19.656;2022-09-03T04:14:43;384.80;2329.60
56123;DHT22;42426;46.104;19.656;2022-09-03T04:17:09;384.80;2329.60
56123;DHT22;42426;46.104;19.656;2022-09-03T04:19:35;384.80;2329.60
56123;DHT22;42426;46.104;19.656;2022-09-03T04:22:02;384.80;2329.60
56123;DHT22;42426;46.104;19.656;2022-09-03T04:24:28;384.80;2329.60
56123;DHT22;42426;46.104;19.656;2022-09-03T04:26:54;384.80;2329.60
56123;DHT22;42426;46.104;19.656;2022-09-03T04:29:20;384.80;2329.60
56123;DHT22;42426;46.104;19.656;2022-09-03T04:31:46;384.80;2329.60
56123;DHT22;42426;46.104;19.656;2022-09-03T04:34:32;384.80;2329.60
56123;DHT22;42426;46.104;19.656;2022-09-03T04:36:58;384.70;2329.60
56123;DHT22;42426;46.104;19.656;2022-09-03T04:39:24;384.70;2329.60
56123;DHT22;42426;46.104;19.656;2022-09-03T04:41:50;384.80;2329.60
56123;DHT22;42426;46.104;19.656;2022-09-03T04:44:16;384.80;2329.60
56123;DHT22;42426;46.104;19.656;2022-09-03T04:46:42;384.80;2329.60
56123;DHT22;42426;46.104;19.656;2022-09-03T04:49:08;384.80;2329.60
56123;DHT22;42426;46.104;19.656;2022-09-03T04:51:34;384.80;2329.60
56123;DHT22;42426;46.104;19.656;2022-09-03T04:54:03;384.80;2329.60
56123;DHT22;42426;46.104;19.656;2022-09-03T04:56:31;384.80;2329.60
56123;DHT22;42426;46.104;19.656;2022-09-03T04:58:59;384.90;2329.60
56123;DHT22;42426;46.104;19.656;2022-09-03T05:01:27;384.80;2329.60
56123;DHT22;42426;46.104;19.656;2022-09-03T05:03:54;384.80;2329.60
56123;DHT22;42426;46.104;19.656;2022-09-03T05:06:20;384.90;2329.60
56123;DHT22;42426;46.104;19.656;2022-09-03T05:08:50;384.90;2329.60
56123;DHT22;42426;46.104;19.656;2022-09-03T05:11:41;384.90;2329.60
56123;DHT22;42426;46.104;19.656;2022-09-03T05:14:11;384.90;2329.60
56123;DHT22;42426;46.104;19.656;2022-09-03T05:16:37;384.80;2329.60
56123;DHT22;42426;46.104;19.656;2022-09-03T05:19:03;384.80;2329.60
56123;DHT22;42426;46.104;19.656;2022-09-03T05:21:31;384.90;2329.60
56123;DHT22;42426;46.104;19.656;2022-09-03T05:23:58;384.80;2329.60
56123;DHT22;42426;46.104;19.656;2022-09-03T05:26:26;384.90;2329.60
56123;DHT22;42426;46.104;19.656;2022-09-03T05:28:57;384.90;2329.60
56123;DHT22;42426;46.104;19.656;2022-09-03T05:31:25;409.60;2355.20
56123;DHT22;42426;46.104;19.656;2022-09-03T05:33:57;409.60;2355.20
56123;DHT22;42426;46.104;19.656;2022-09-03T05:36:25;409.60;2355.20
56123;DHT22;42426;46.104;19.656;2022-09-03T05:38:51;409.60;2355.20
56123;DHT22;42426;46.104;19.656;2022-09-03T05:41:19;409.60;2355.20
56123;DHT22;42426;46.104;19.656;2022-09-03T05:43:51;409.70;2355.20
56123;DHT22;42426;46.104;19.656;2022-09-03T05:46:21;409.70;2355.20
56123;DHT22;42426;46.104;19.656;2022-09-03T05:48:53;409.70;2355.20
56123;DHT22;42426;46.104;19.656;2022-09-03T05:51:18;409.80;2355.20
56123;DHT22;42426;46.104;19.656;2022-09-03T05:53:46;409.80;2355.20
56123;DHT22;42426;46.104;19.656;2022-09-03T05:56:17;409.80;2355.20
56123;DHT22;42426;46.104;19.656;2022-09-03T05:58:48;409.90;2355.20
56123;DHT22;42426;46.104;19.656;2022-09-03T06:01:19;409.90;2355.20
56123;DHT22;42426;46.104;19.656;2022-09-03T06:03:46;410.00;2355.20
56123;DHT22;42426;46.104;19.656;2022-09-03T06:06:14;410.00;2355.20
56123;DHT22;42426;46.104;19.656;2022-09-03T06:08:40;410.00;2355.20
56123;DHT22;42426;46.104;19.656;2022-09-03T06:11:07;410.00;2355.20
56123;DHT22;42426;46.104;19.656;2022-09-03T06:13:34;410.00;2355.20
56123;DHT22;42426;46.104;19.656;2022-09-03T06:16:02;410.10;2355.20
56123;DHT22;42426;46.104;19.656;2022-09-03T06:18:30;410.10;2355.20
56123;DHT22;42426;46.104;19.656;2022-09-03T06:21:01;410.10;2355.20
56123;DHT22;42426;46.104;19.656;2022-09-03T06:23:28;410.10;2355.20
56123;DHT22;42426;46.104;19.656;2022-09-03T06:26:08;410.20;2355.20
56123;DHT22;42426;46.104;19.656;2022-09-03T06:28:37;410.20;2355.20
56123;DHT22;42426;46.104;19.656;2022-09-03T06:31:05;410.30;2355.20
56123;DHT22;42426;46.104;19.656;2022-09-03T06:33:33;410.40;2355.20
56123;DHT22;42426;46.104;19.656;2022-09-03T06:36:00;410.40;2355.20
56123;DHT22;42426;46.104;19.656;2022-09-03T06:38:28;410.50;2355.20
56123;DHT22;42426;46.104;19.656;2022-09-03T06:40:58;435.20;2355.20
56123;DHT22;42426;46.104;19.656;2022-09-03T06:43:29;435.20;2355.20
56123;DHT22;42426;46.104;19.656;2022-09-03T06:48:33;435.30;2355.20
56123;DHT22;42426;46.104;19.656;2022-09-03T06:51:02;435.40;2355.20
56123;DHT22;42426;46.104;19.656;2022-09-03T06:53:30;435.50;2355.20
56123;DHT22;42426;46.104;19.656;2022-09-03T06:55:57;435.50;2355.20
56123;DHT22;42426;46.104;19.656;2022-09-03T06:58:28;435.50;2355.20
56123;DHT22;42426;46.104;19.656;2022-09-03T07:01:04;435.50;2355.20
56123;DHT22;42426;46.104;19.656;2022-09-03T07:03:42;435.60;2355.20
56123;DHT22;42426;46.104;19.656;2022-09-03T07:06:19;435.60;2355.20
56123;DHT22;42426;46.104;19.656;2022-09-03T07:08:46;435.60;2355.20
56123;DHT22;42426;46.104;19.656;2022-09-03T07:11:17;435.70;2355.20
56123;DHT22;42426;46.104;19.656;2022-09-03T07:13:45;435.70;2355.20
56123;DHT22;42426;46.104;19.656;2022-09-03T07:16:34;435.70;2355.20
56123;DHT22;42426;46.104;19.656;2022-09-03T07:19:01;435.80;2355.20
56123;DHT22;42426;46.104;19.656;2022-09-03T07:21:29;435.80;2355.20
56123;DHT22;42426;46.104;19.656;2022-09-03T07:24:08;435.90;2355.20
56123;DHT22;42426;46.104;19.656;2022-09-03T07:26:39;435.90;2355.20
56123;DHT22;42426;46.104;19.656;2022-09-03T07:29:06;436.00;2355.20
56123;DHT22;42426;46.104;19.656;2022-09-03T07:31:41;436.00;2355.20
56123;DHT22;42426;46.104;19.656;2022-09-03T07:34:30;436.10;2355.20
56123;DHT22;42426;46.104;19.656;2022-09-03T07:36:56;460.90;2380.80
56123;DHT22;42426;46.104;19.656;2022-09-03T07:39:21;460.90;2380.80
56123;DHT22;42426;46.104;19.656;2022-09-03T07:41:49;460.90;2380.80
56123;DHT22;42426;46.104;19.656;2022-09-03T07:44:16;461.00;2355.20
56123;DHT22;42426;46.104;19.656;2022-09-03T07:46:47;461.10;2355.20
56123;DHT22;42426;46.104;19.656;2022-09-03T07:49:17;461.20;2329.60
56123;DHT22;42426;46.104;19.656;2022-09-03T07:51:45;461.20;2329.60
56123;DHT22;42426;46.104;19.656;2022-09-03T07:54:18;461.20;2329.60
56123;DHT22;42426;46.104;19.656;2022-09-03T07:56:44;461.30;2304.00
56123;DHT22;42426;46.104;19.656;2022-09-03T07:59:16;461.30;2304.00
56123;DHT22;42426;46.104;19.656;2022-09-03T08:01:42;461.30;2304.00
56123;DHT22;42426;46.104;19.656;2022-09-03T08:04:08;461.40;2304.00
56123;DHT22;42426;46.104;19.656;2022-09-03T08:06:37;461.50;2304.00
56123;DHT22;42426;46.104;19.656;2022-09-03T08:09:05;461.60;2304.00
56123;DHT22;42426;46.104;19.656;2022-09-03T08:11:40;486.40;2278.40
56123;DHT22;42426;46.104;19.656;2022-09-03T08:14:09;486.40;2252.80
56123;DHT22;42426;46.104;19.656;2022-09-03T08:16:42;486.60;2227.20
56123;DHT22;42426;46.104;19.656;2022-09-03T08:19:09;486.50;2201.60
56123;DHT22;42426;46.104;19.656;2022-09-03T08:21:36;486.50;2201.60
56123;DHT22;42426;46.104;19.656;2022-09-03T08:24:01;486.50;2176.00
56123;DHT22;42426;46.104;19.656;2022-09-03T10:00:35;538.00;1971.20
56123;DHT22;42426;46.104;19.656;2022-09-03T10:03:11;537.80;1945.60
56123;DHT22;42426;46.104;19.656;2022-09-03T10:05:39;537.80;1920.00
56123;DHT22;42426;46.104;19.656;2022-09-03T10:08:25;537.90;1920.00
56123;DHT22;42426;46.104;19.656;2022-09-03T10:10:51;537.90;1971.20
56123;DHT22;42426;46.104;19.656;2022-09-03T10:13:38;537.90;1945.60
56123;DHT22;42426;46.104;19.656;2022-09-03T10:16:20;537.90;1996.80
56123;DHT22;42426;46.104;19.656;2022-09-03T10:19:00;537.90;1945.60
56123;DHT22;42426;46.104;19.656;2022-09-03T10:24:31;538.00;1894.40
56123;DHT22;42426;46.104;19.656;2022-09-03T10:26:58;538.00;1894.40
56123;DHT22;42426;46.104;19.656;2022-09-03T10:29:24;538.30;1920.00
56123;DHT22;42426;46.104;19.656;2022-09-03T10:34:37;538.20;1868.80
56123;DHT22;42426;46.104;19.656;2022-09-03T10:42:29;563.40;1945.60
56123;DHT22;42426;46.104;19.656;2022-09-03T10:48:15;538.50;1843.20
56123;DHT22;42426;46.104;19.656;2022-09-03T10:50:51;563.20;1945.60
56123;DHT22;42426;46.104;19.656;2022-09-03T10:56:06;538.40;1920.00
56123;DHT22;42426;46.104;19.656;2022-09-03T11:07:03;563.20;1868.80
56123;DHT22;42426;46.104;19.656;2022-09-03T11:13:18;563.20;1920.00
56123;DHT22;42426;46.104;19.656;2022-09-03T11:15:47;538.50;1894.40
56123;DHT22;42426;46.104;19.656;2022-09-03T11:18:31;538.40;1920.00
56123;DHT22;42426;46.104;19.656;2022-09-03T11:21:04;538.40;1843.20
56123;DHT22;42426;46.104;19.656;2022-09-03T11:23:35;538.40;1868.80
56123;DHT22;42426;46.104;19.656;2022-09-03T11:26:07;538.50;1894.40
56123;DHT22;42426;46.104;19.656;2022-09-03T11:34:43;563.50;1945.60
56123;DHT22;42426;46.104;19.656;2022-09-03T11:42:41;564.00;1868.80
56123;DHT22;42426;46.104;19.656;2022-09-03T11:47:51;564.00;1766.40
56123;DHT22;42426;46.104;19.656;2022-09-03T11:53:37;588.80;1817.60
56123;DHT22;42426;46.104;19.656;2022-09-03T11:58:34;564.00;1868.80
56123;DHT22;42426;46.104;19.656;2022-09-03T12:01:04;564.00;1792.00
56123;DHT22;42426;46.104;19.656;2022-09-03T12:03:43;564.00;1843.20
56123;DHT22;42426;46.104;19.656;2022-09-03T12:08:54;563.80;1843.20
56123;DHT22;42426;46.104;19.656;2022-09-03T12:19:41;564.00;1817.60
56123;DHT22;42426;46.104;19.656;2022-09-03T12:22:14;564.10;1843.20
56123;DHT22;42426;46.104;19.656;2022-09-03T12:24:40;564.00;1843.20
56123;DHT22;42426;46.104;19.656;2022-09-03T12:27:15;564.00;1817.60
56123;DHT22;42426;46.104;19.656;2022-09-03T12:30:00;564.10;1817.60
56123;DHT22;42426;46.104;19.656;2022-09-03T12:32:33;564.10;1817.60
56123;DHT22;42426;46.104;19.656;2022-09-03T12:35:12;588.90;1817.60
56123;DHT22;42426;46.104;19.656;2022-09-03T12:37:41;589.10;1843.20
56123;DHT22;42426;46.104;19.656;2022-09-03T17:23:24;538.40;1868.80
56123;DHT22;42426;46.104;19.656;2022-09-03T17:26:09;538.30;1894.40
56123;DHT22;42426;46.104;19.656;2022-09-03T17:37:30;538.00;1945.60
56123;DHT22;42426;46.104;19.656;2022-09-03T17:53:51;537.60;1996.80
56123;DHT22;42426;46.104;19.656;2022-09-03T17:56:32;537.60;1996.80
56123;DHT22;42426;46.104;19.656;2022-09-03T18:02:07;512.90;1996.80
56123;DHT22;42426;46.104;19.656;2022-09-03T18:04:42;512.80;1996.80
56123;DHT22;42426;46.104;19.656;2022-09-03T18:12:36;512.80;2022.40
56123;DHT22;42426;46.104;19.656;2022-09-03T18:15:14;512.70;2022.40
56123;DHT22;42426;46.104;19.656;2022-09-03T18:17:53;512.70;2022.40
56123;DHT22;42426;46.104;19.656;2022-09-03T18:20:23;512.70;2022.40
56123;DHT22;42426;46.104;19.656;2022-09-03T18:23:33;512.60;2048.00
56123;DHT22;42426;46.104;19.656;2022-09-03T18:26:28;512.60;2048.00
56123;DHT22;42426;46.104;19.656;2022-09-03T18:29:54;512.60;2048.00
56123;DHT22;42426;46.104;19.656;2022-09-03T18:32:29;512.60;2048.00
56123;DHT22;42426;46.104;19.656;2022-09-03T18:35:14;512.50;2048.00
56123;DHT22;42426;46.104;19.656;2022-09-03T18:38:01;512.40;2048.00
56123;DHT22;42426;46.104;19.656;2022-09-03T18:50:25;512.40;2073.60
56123;DHT22;42426;46.104;19.656;2022-09-03T18:56:49;512.30;2099.20
56123;DHT22;42426;46.104;19.656;2022-09-03T19:15:20;512.20;2124.80
56123;DHT22;42426;46.104;19.656;2022-09-03T19:18:09;512.20;2124.80
56123;DHT22;42426;46.104;19.656;2022-09-03T19:24:06;512.20;2124.80
56123;DHT22;42426;46.104;19.656;2022-09-03T19:32:50;512.10;2150.40
56123;DHT22;42426;46.104;19.656;2022-09-03T19:38:41;512.00;2150.40
56123;DHT22;42426;46.104;19.656;2022-09-03T19:41:41;512.00;2150.40
56123;DHT22;42426;46.104;19.656;2022-09-03T19:47:34;487.30;2176.00
56123;DHT22;42426;46.104;19.656;2022-09-03T19:50:29;487.30;2176.00
56123;DHT22;42426;46.104;19.656;2022-09-03T19:53:20;487.30;2176.00
56123;DHT22;42426;46.104;19.656;2022-09-03T19:56:10;487.20;2176.00
56123;DHT22;42426;46.104;19.656;2022-09-03T19:58:59;487.30;2176.00
56123;DHT22;42426;46.104;19.656;2022-09-03T20:01:45;487.30;2176.00
56123;DHT22;42426;46.104;19.656;2022-09-03T20:04:33;487.30;2176.00
56123;DHT22;42426;46.104;19.656;2022-09-03T20:07:36;487.30;2176.00
56123;DHT22;42426;46.104;19.656;2022-09-03T20:10:23;512.50;2176.00
56123;DHT22;42426;46.104;19.656;2022-09-03T20:13:08;487.30;2176.00
56123;DHT22;42426;46.104;19.656;2022-09-03T20:18:48;487.30;2176.00
56123;DHT22;42426;46.104;19.656;2022-09-03T20:21:37;487.30;2176.00
56123;DHT22;42426;46.104;19.656;2022-09-03T20:35:51;487.20;2176.00
56123;DHT22;42426;46.104;19.656;2022-09-03T20:52:16;487.10;2201.60
56123;DHT22;42426;46.104;19.656;2022-09-03T20:58:08;487.10;2176.00
56123;DHT22;42426;46.104;19.656;2022-09-03T21:01:05;487.10;2176.00
56123;DHT22;42426;46.104;19.656;2022-09-03T21:06:28;487.10;2201.60
56123;DHT22;42426;46.104;19.656;2022-09-03T21:09:16;487.10;2201.60
56123;DHT22;42426;46.104;19.656;2022-09-03T21:14:40;487.00;2201.60
56123;DHT22;42426;46.104;19.656;2022-09-03T21:25:12;486.90;2201.60
56123;DHT22;42426;46.104;19.656;2022-09-03T21:27:45;486.90;2201.60
56123;DHT22;42426;46.104;19.656;2022-09-03T21:30:17;486.90;2201.60
56123;DHT22;42426;46.104;19.656;2022-09-03T21:33:01;486.90;2201.60
56123;DHT22;42426;46.104;19.656;2022-09-03T21:35:33;486.80;2201.60
56123;DHT22;42426;46.104;19.656;2022-09-03T21:38:05;486.80;2227.20
56123;DHT22;42426;46.104;19.656;2022-09-03T21:40:34;486.80;2227.20
56123;DHT22;42426;46.104;19.656;2022-09-03T21:43:16;486.70;2227.20
56123;DHT22;42426;46.104;19.656;2022-09-03T21:48:41;486.70;2227.20
56123;DHT22;42426;46.104;19.656;2022-09-03T21:54:15;486.70;2227.20
56123;DHT22;42426;46.104;19.656;2022-09-03T21:59:37;486.70;2252.80
56123;DHT22;42426;46.104;19.656;2022-09-03T22:02:12;486.60;2252.80
56123;DHT22;42426;46.104;19.656;2022-09-03T22:04:43;486.60;2252.80
56123;DHT22;42426;46.104;19.656;2022-09-03T22:09:53;486.60;2252.80
56123;DHT22;42426;46.104;19.656;2022-09-03T22:12:47;486.60;2252.80
56123;DHT22;42426;46.104;19.656;2022-09-03T22:15:14;486.50;2252.80
56123;DHT22;42426;46.104;19.656;2022-09-03T22:18:04;486.50;2278.40
56123;DHT22;42426;46.104;19.656;2022-09-03T22:20:31;486.50;2252.80
56123;DHT22;42426;46.104;19.656;2022-09-03T22:23:20;486.50;2278.40
56123;DHT22;42426;46.104;19.656;2022-09-03T22:28:31;486.40;2278.40
56123;DHT22;42426;46.104;19.656;2022-09-03T22:31:21;486.40;2278.40
56123;DHT22;42426;46.104;19.656;2022-09-03T22:34:17;486.40;2278.40
56123;DHT22;42426;46.104;19.656;2022-09-03T22:36:49;486.40;2278.40
56123;DHT22;42426;46.104;19.656;2022-09-03T22:42:22;461.70;2304.00
56123;DHT22;42426;46.104;19.656;2022-09-03T22:45:19;461.70;2304.00
56123;DHT22;42426;46.104;19.656;2022-09-03T22:51:00;461.70;2304.00
56123;DHT22;42426;46.104;19.656;2022-09-03T22:56:06;461.60;2304.00
56123;DHT22;42426;46.104;19.656;2022-09-03T22:58:55;461.60;2304.00
56123;DHT22;42426;46.104;19.656;2022-09-03T23:06:56;461.50;2304.00
56123;DHT22;42426;46.104;19.656;2022-09-03T23:09:28;461.50;2304.00
56123;DHT22;42426;46.104;19.656;2022-09-03T23:12:15;461.50;2304.00
56123;DHT22;42426;46.104;19.656;2022-09-03T23:14:50;461.50;2304.00
56123;DHT22;42426;46.104;19.656;2022-09-03T23:17:25;461.40;2304.00
56123;DHT22;42426;46.104;19.656;2022-09-03T23:23:12;461.40;2329.60
56123;DHT22;42426;46.104;19.656;2022-09-03T23:25:46;461.40;2304.00
56123;DHT22;42426;46.104;19.656;2022-09-03T23:29:06;461.40;2304.00
